Cape Express — HO5337 — position and weather

sailwx.info

Track history (hours):
 
Tides and Currents Weather Stations Pressure Air Temp Water Temp Dewpoint Dewpoint Depression Visibility Wind Speed Wind Dir Waves Ship Positions

Cape Express

Last reported at 2017-Mar-27 10:33 UTC. Time now 2017-Mar-27 10:43 UTC.
Position N 26°04' W 079°60'.

Length 29 m; draft 2.1 m.

Type: Cargo ship. MMSI: 370269000.

Date/timePositionNaut miles runAvg speedWind from/ knotsBaromVisibWave heightAir tempDewpointWater temp
2017-Mar-27 10:33N 26°04' W 079°60'8 8.3
2017-Mar-27 09:33N 26°02' W 079°51'12 0.4
2017-Mar-26 02:22N 25°59' W 079°37'6 7.0
2017-Mar-26 01:33N 25°60' W 079°43'7 6.7
2017-Mar-26 00:33N 26°02' W 079°51'7 6.6
2017-Mar-25 23:33N 26°04' W 079°58'7 7.3
2017-Mar-25 22:34N 26°06' W 080°05'3 2.9
2017-Mar-25 21:33N 26°04' W 080°08'0 0.0
2017-Mar-25 20:34N 26°04' W 080°08'0 0.0
2017-Mar-25 19:33N 26°04' W 080°08'0 0.0
2017-Mar-25 18:33N 26°04' W 080°08'0 0.0
2017-Mar-25 17:34N 26°04' W 080°08'0 0.0
2017-Mar-25 16:33N 26°04' W 080°08'3 2.6
2017-Mar-25 15:33N 26°06' W 080°06'9 9.5
2017-Mar-25 14:33N 26°05' W 079°55'10 9.6
2017-Mar-25 13:33N 26°04' W 079°45'  
2017-Mar-23 08:33N 25°50' W 079°32'7 7.1
2017-Mar-23 07:33N 25°53' W 079°39'7 7.4
2017-Mar-23 06:33N 25°56' W 079°47'7 7.4
2017-Mar-23 05:33N 26°00' W 079°54'7 6.9
2017-Mar-23 04:33N 26°04' W 080°01'6 5.8
2017-Mar-23 03:33N 26°04' W 080°07'1 0.8
2017-Mar-23 02:33N 26°04' W 080°08'0 0.0
2017-Mar-23 01:33N 26°04' W 080°08'0 0.0
2017-Mar-23 00:33N 26°04' W 080°08'0 0.0
2017-Mar-22 23:33N 26°04' W 080°08'0 0.1
2017-Mar-22 22:33N 26°04' W 080°08'3 2.9
2017-Mar-22 21:34N 26°05' W 080°05'9 8.5
2017-Mar-22 20:33N 26°05' W 079°55'9 9.5
2017-Mar-22 19:33N 26°05' W 079°45'11 0.8
2017-Mar-22 05:33N 26°14' W 079°38'1110.5
2017-Mar-22 04:33N 26°11' W 079°49'1010.4
2017-Mar-22 03:33N 26°07' W 080°00'8 7.6
2017-Mar-22 02:33N 26°04' W 080°08'0 0.1
2017-Mar-22 01:33N 26°04' W 080°08'0 0.0
2017-Mar-22 00:33N 26°04' W 080°08'0 0.0
2017-Mar-21 23:33N 26°04' W 080°08'4 4.1
2017-Mar-21 22:33N 26°05' W 080°04'1010.0
2017-Mar-21 21:33N 26°04' W 079°53'9 9.0
2017-Mar-21 20:33N 26°05' W 079°43'10 0.7
2017-Mar-21 05:33N 26°14' W 079°39'10 9.9
2017-Mar-21 04:33N 26°11' W 079°49'10 9.8
2017-Mar-21 03:33N 26°07' W 079°59'8 8.0
2017-Mar-21 02:34N 26°04' W 080°07'1 0.6
2017-Mar-21 01:33N 26°04' W 080°08'0 0.0
2017-Mar-21 00:33N 26°04' W 080°08'0 0.0
2017-Mar-20 23:33N 26°04' W 080°08'5 4.6
2017-Mar-20 22:33N 26°06' W 080°03'10 9.5
2017-Mar-20 21:33N 26°09' W 079°53'8 8.4
2017-Mar-20 20:33N 26°12' W 079°45'7 0.5
2017-Mar-20 05:30N 26°15' W 079°37'7 7.6
2017-Mar-20 04:33N 26°12' W 079°45'8 7.9
2017-Mar-20 03:33N 26°09' W 079°53'8 8.2
2017-Mar-20 02:34N 26°07' W 080°02'6 6.3
2017-Mar-20 01:33N 26°04' W 080°08'0 0.1
2017-Mar-20 00:34N 26°04' W 080°08'0 0.0
2017-Mar-19 23:33N 26°04' W 080°08'1 1.2
2017-Mar-19 22:34N 26°04' W 080°07'6 5.9
2017-Mar-19 21:33N 26°01' W 080°01'10 9.9
2017-Mar-19 20:33N 25°56' W 079°52'1110.9
2017-Mar-19 19:33N 25°48' W 079°43'19 1.7
2017-Mar-19 08:32N 25°35' W 079°27'5 5.5
2017-Mar-19 07:33N 25°39' W 079°32'5 5.2
2017-Mar-19 06:33N 25°43' W 079°36'5 5.3
2017-Mar-19 05:33N 25°46' W 079°41'7 6.7
2017-Mar-19 04:33N 25°50' W 079°46'7 7.2
2017-Mar-19 03:33N 25°55' W 079°52'8 8.0
2017-Mar-19 02:33N 26°01' W 079°58'9 8.6
2017-Mar-19 01:34N 26°06' W 080°06'2 2.5
2017-Mar-19 00:33N 26°04' W 080°08'0 0.0
2017-Mar-18 23:33N 26°04' W 080°08'0 0.0
2017-Mar-18 22:33N 26°04' W 080°08'0 0.0
2017-Mar-18 21:33N 26°04' W 080°08'0 0.0
2017-Mar-18 20:33N 26°04' W 080°08'0 0.0
2017-Mar-18 19:33N 26°04' W 080°08'0 0.0
2017-Mar-18 18:34N 26°04' W 080°08'0 0.0
2017-Mar-18 17:33N 26°04' W 080°08'0 0.0
2017-Mar-18 16:33N 26°04' W 080°08'0 0.0
2017-Mar-18 15:33N 26°04' W 080°08'0 0.0
2017-Mar-18 14:33N 26°04' W 080°08'0 0.1
2017-Mar-18 13:33N 26°04' W 080°08'0 0.0
2017-Mar-18 12:33N 26°04' W 080°08'0 0.0
2017-Mar-18 11:33N 26°04' W 080°08'0 0.0
2017-Mar-18 10:33N 26°04' W 080°08'0 0.0
2017-Mar-18 09:33N 26°04' W 080°08'1 1.5
2017-Mar-18 08:33N 26°05' W 080°07'6 6.5
2017-Mar-18 07:34N 26°04' W 079°60'8 8.2
2017-Mar-18 06:33N 26°01' W 079°51'  
Track history (hours):
 
Tides and Currents Weather Stations Pressure Air Temp Water Temp Dewpoint Dewpoint Depression Visibility Wind Speed Wind Dir Waves Ship Positions

Cape Express

Last reported at 2017-Mar-27 10:33 UTC. Time now 2017-Mar-27 10:43 UTC.
Position N 26°04' W 079°60'.

Length 29 m; draft 2.1 m.

Type: Cargo ship. MMSI: 370269000.

Date/timePositionNaut miles runAvg speedWind from/ knotsBaromVisibWave heightAir tempDewpointWater temp
2017-Mar-27 10:33N 26°04' W 079°60'8 8.3
2017-Mar-27 09:33N 26°02' W 079°51'12 0.4
2017-Mar-26 02:22N 25°59' W 079°37'6 7.0
2017-Mar-26 01:33N 25°60' W 079°43'7 6.7
2017-Mar-26 00:33N 26°02' W 079°51'7 6.6
2017-Mar-25 23:33N 26°04' W 079°58'7 7.3
2017-Mar-25 22:34N 26°06' W 080°05'3 2.9
2017-Mar-25 21:33N 26°04' W 080°08'0 0.0
2017-Mar-25 20:34N 26°04' W 080°08'0 0.0
2017-Mar-25 19:33N 26°04' W 080°08'0 0.0
2017-Mar-25 18:33N 26°04' W 080°08'0 0.0
2017-Mar-25 17:34N 26°04' W 080°08'0 0.0
2017-Mar-25 16:33N 26°04' W 080°08'3 2.6
2017-Mar-25 15:33N 26°06' W 080°06'9 9.5
2017-Mar-25 14:33N 26°05' W 079°55'10 9.6
2017-Mar-25 13:33N 26°04' W 079°45'  
2017-Mar-23 08:33N 25°50' W 079°32'7 7.1
2017-Mar-23 07:33N 25°53' W 079°39'7 7.4
2017-Mar-23 06:33N 25°56' W 079°47'7 7.4
2017-Mar-23 05:33N 26°00' W 079°54'7 6.9
2017-Mar-23 04:33N 26°04' W 080°01'6 5.8
2017-Mar-23 03:33N 26°04' W 080°07'1 0.8
2017-Mar-23 02:33N 26°04' W 080°08'0 0.0
2017-Mar-23 01:33N 26°04' W 080°08'0 0.0
2017-Mar-23 00:33N 26°04' W 080°08'0 0.0
2017-Mar-22 23:33N 26°04' W 080°08'0 0.1
2017-Mar-22 22:33N 26°04' W 080°08'3 2.9
2017-Mar-22 21:34N 26°05' W 080°05'9 8.5
2017-Mar-22 20:33N 26°05' W 079°55'9 9.5
2017-Mar-22 19:33N 26°05' W 079°45'11 0.8
2017-Mar-22 05:33N 26°14' W 079°38'1110.5
2017-Mar-22 04:33N 26°11' W 079°49'1010.4
2017-Mar-22 03:33N 26°07' W 080°00'8 7.6
2017-Mar-22 02:33N 26°04' W 080°08'0 0.1
2017-Mar-22 01:33N 26°04' W 080°08'0 0.0
2017-Mar-22 00:33N 26°04' W 080°08'0 0.0
2017-Mar-21 23:33N 26°04' W 080°08'4 4.1
2017-Mar-21 22:33N 26°05' W 080°04'1010.0
2017-Mar-21 21:33N 26°04' W 079°53'9 9.0
2017-Mar-21 20:33N 26°05' W 079°43'10 0.7
2017-Mar-21 05:33N 26°14' W 079°39'10 9.9
2017-Mar-21 04:33N 26°11' W 079°49'10 9.8
2017-Mar-21 03:33N 26°07' W 079°59'8 8.0
2017-Mar-21 02:34N 26°04' W 080°07'1 0.6
2017-Mar-21 01:33N 26°04' W 080°08'0 0.0
2017-Mar-21 00:33N 26°04' W 080°08'0 0.0
2017-Mar-20 23:33N 26°04' W 080°08'5 4.6
2017-Mar-20 22:33N 26°06' W 080°03'10 9.5
2017-Mar-20 21:33N 26°09' W 079°53'8 8.4
2017-Mar-20 20:33N 26°12' W 079°45'7 0.5
2017-Mar-20 05:30N 26°15' W 079°37'7 7.6
2017-Mar-20 04:33N 26°12' W 079°45'8 7.9
2017-Mar-20 03:33N 26°09' W 079°53'8 8.2
2017-Mar-20 02:34N 26°07' W 080°02'6 6.3
2017-Mar-20 01:33N 26°04' W 080°08'0 0.1
2017-Mar-20 00:34N 26°04' W 080°08'0 0.0
2017-Mar-19 23:33N 26°04' W 080°08'1 1.2
2017-Mar-19 22:34N 26°04' W 080°07'6 5.9
2017-Mar-19 21:33N 26°01' W 080°01'10 9.9
2017-Mar-19 20:33N 25°56' W 079°52'1110.9
2017-Mar-19 19:33N 25°48' W 079°43'19 1.7
2017-Mar-19 08:32N 25°35' W 079°27'5 5.5
2017-Mar-19 07:33N 25°39' W 079°32'5 5.2
2017-Mar-19 06:33N 25°43' W 079°36'5 5.3
2017-Mar-19 05:33N 25°46' W 079°41'7 6.7
2017-Mar-19 04:33N 25°50' W 079°46'7 7.2
2017-Mar-19 03:33N 25°55' W 079°52'8 8.0
2017-Mar-19 02:33N 26°01' W 079°58'9 8.6
2017-Mar-19 01:34N 26°06' W 080°06'2 2.5
2017-Mar-19 00:33N 26°04' W 080°08'0 0.0
2017-Mar-18 23:33N 26°04' W 080°08'0 0.0
2017-Mar-18 22:33N 26°04' W 080°08'0 0.0
2017-Mar-18 21:33N 26°04' W 080°08'0 0.0
2017-Mar-18 20:33N 26°04' W 080°08'0 0.0
2017-Mar-18 19:33N 26°04' W 080°08'0 0.0
2017-Mar-18 18:34N 26°04' W 080°08'0 0.0
2017-Mar-18 17:33N 26°04' W 080°08'0 0.0
2017-Mar-18 16:33N 26°04' W 080°08'0 0.0
2017-Mar-18 15:33N 26°04' W 080°08'0 0.0
2017-Mar-18 14:33N 26°04' W 080°08'0 0.1
2017-Mar-18 13:33N 26°04' W 080°08'0 0.0
2017-Mar-18 12:33N 26°04' W 080°08'0 0.0
2017-Mar-18 11:33N 26°04' W 080°08'0 0.0
2017-Mar-18 10:33N 26°04' W 080°08'0 0.0
2017-Mar-18 09:33N 26°04' W 080°08'1 1.5
2017-Mar-18 08:33N 26°05' W 080°07'6 6.5
2017-Mar-18 07:34N 26°04' W 079°60'8 8.2
2017-Mar-18 06:33N 26°01' W 079°51'  

Dump ship's entire track history